Time;durP1;ratioP1;P1;durP2;ratioP2;P2;SDS_P1;SDS_P2;PMS_P1;PMS_P2;Temp;Humidity;BMP_temperature;BMP_pressure;BME280_temperature;BME280_humidity;BME280_pressure;Samples;Min_cycle;Max_cycle;Signal;HPM_P1;HPM_P2
2023/05/14 00:02:13;;;;;;;1999.90;999.90;;;;;;;11.71;100.00;97935.38;5031066;28;20037;-73
2023/05/14 00:04:38;;;;;;;1999.90;999.90;;;;;;;11.63;100.00;97930.56;5030964;28;20033;-75
2023/05/14 00:07:04;;;;;;;1999.90;999.90;;;;;;;11.61;100.00;97932.81;5031710;28;20037;-73
2023/05/14 00:09:29;;;;;;;1999.90;999.90;;;;;;;11.71;100.00;97924.44;5031176;28;20021;-74
2023/05/14 00:11:55;;;;;;;1999.90;999.90;;;;;;;11.63;100.00;97924.25;5031644;28;20036;-73
2023/05/14 00:14:20;;;;;;;1999.90;999.90;;;;;;;11.64;100.00;97921.22;5031297;28;20029;-73
2023/05/14 00:16:46;;;;;;;1999.90;999.90;;;;;;;11.62;100.00;97920.69;5031077;28;20026;-73
2023/05/14 00:19:11;;;;;;;1999.90;999.90;;;;;;;11.72;100.00;97926.03;5030628;28;20124;-73
2023/05/14 00:21:36;;;;;;;1999.90;999.90;;;;;;;11.68;100.00;97908.53;5030870;28;20068;-73
2023/05/14 00:24:02;;;;;;;1999.90;999.90;;;;;;;11.70;100.00;97909.09;5030873;28;20108;-73
2023/05/14 00:26:27;;;;;;;1999.90;999.90;;;;;;;11.73;100.00;97902.19;5030913;28;20470;-73
2023/05/14 00:28:52;;;;;;;1999.90;999.90;;;;;;;11.73;100.00;97907.66;5030688;28;20037;-73
2023/05/14 00:31:18;;;;;;;1999.90;999.90;;;;;;;11.75;100.00;97911.72;5030793;28;20084;-72
2023/05/14 00:33:43;;;;;;;1999.90;999.90;;;;;;;11.79;100.00;97896.31;5030738;28;20123;-72
2023/05/14 00:36:08;;;;;;;1999.90;999.90;;;;;;;11.78;100.00;97902.88;5030954;28;20026;-72
2023/05/14 00:38:33;;;;;;;1999.90;999.90;;;;;;;11.80;100.00;97900.69;5030840;28;20079;-72
2023/05/14 00:40:59;;;;;;;1999.90;999.90;;;;;;;11.81;100.00;97895.97;5030491;28;20045;-73
2023/05/14 00:43:24;;;;;;;1999.90;999.90;;;;;;;11.78;100.00;97899.34;5030217;28;20390;-73
2023/05/14 00:45:51;;;;;;;1999.90;999.90;;;;;;;11.79;100.00;97896.31;5030708;28;20036;-73
2023/05/14 00:48:18;;;;;;;1999.90;999.90;;;;;;;11.70;100.00;97889.91;5030452;28;20036;-73
2023/05/14 00:50:43;;;;;;;1999.90;999.90;;;;;;;11.78;100.00;97889.19;5030428;28;20032;-73
2023/05/14 00:53:10;;;;;;;1999.90;999.90;;;;;;;11.75;100.00;97895.28;5030396;28;20382;-73
2023/05/14 00:55:37;;;;;;;1999.90;999.90;;;;;;;11.72;100.00;97893.16;5030466;28;20032;-73
2023/05/14 00:58:10;;;;;;;1999.90;999.90;;;;;;;11.73;100.00;97894.78;5030306;28;20711;-73
2023/05/14 01:00:37;;;;;;;1999.90;999.90;;;;;;;11.74;100.00;97890.13;5030415;28;20540;-73
2023/05/14 01:03:04;;;;;;;1999.90;999.90;;;;;;;11.71;100.00;97883.31;5030350;28;20052;-73
2023/05/14 01:05:39;;;;;;;1999.90;999.90;;;;;;;11.68;100.00;97874.88;5030266;28;20037;-73
2023/05/14 01:08:31;;;;;;;1999.90;999.90;;;;;;;11.69;100.00;97871.00;5030685;28;20100;-74
2023/05/14 01:11:24;;;;;;;1999.90;999.90;;;;;;;11.70;100.00;97878.94;5030231;28;20487;-73
2023/05/14 01:14:05;;;;;;;1999.90;999.90;;;;;;;11.72;100.00;97878.63;5001694;28;20041;-72
2023/05/14 01:16:32;;;;;;;1999.90;999.90;;;;;;;11.65;100.00;97859.81;5016133;28;20082;-72
2023/05/14 01:18:59;;;;;;;1999.90;999.90;;;;;;;11.66;100.00;97861.47;5011854;28;20036;-72
2023/05/14 01:21:41;;;;;;;1999.90;999.90;;;;;;;11.55;100.00;97854.56;5019641;28;20076;-72
2023/05/14 01:24:07;;;;;;;1999.90;999.90;;;;;;;11.54;100.00;97846.63;5010167;28;20489;-72
2023/05/14 01:26:33;;;;;;;1999.90;999.90;;;;;;;11.52;100.00;97848.88;5010172;28;20026;-72
2023/05/14 01:29:09;;;;;;;1999.90;999.90;;;;;;;11.53;100.00;97840.34;5010134;28;20052;-74
2023/05/14 01:31:36;;;;;;;;;;;;;;;11.57;100.00;97851.50;5011874;28;20037;-73
2023/05/14 01:34:04;;;;;;;1999.90;999.90;;;;;;;11.44;100.00;97842.16;5027423;28;19916;-72
2023/05/14 01:36:30;;;;;;;1999.90;999.90;;;;;;;11.45;100.00;97853.94;5034039;28;20041;-72
2023/05/14 01:38:56;;;;;;;1999.90;999.90;;;;;;;11.40;100.00;97845.84;5033100;28;20060;-72
2023/05/14 01:41:24;;;;;;;1999.90;999.90;;;;;;;11.52;100.00;97852.44;5033154;28;20037;-72
2023/05/14 01:43:50;;;;;;;1999.90;999.90;;;;;;;11.56;100.00;97845.22;5033211;28;20104;-72
2023/05/14 01:46:19;;;;;;;1999.90;999.90;;;;;;;11.54;100.00;97841.16;5033321;28;20022;-73
2023/05/14 01:48:44;;;;;;;1999.90;999.90;;;;;;;11.54;100.00;97831.03;5033346;28;20551;-73
2023/05/14 01:51:10;;;;;;;1999.90;999.90;;;;;;;11.46;100.00;97823.53;5033317;28;20034;-73
2023/05/14 01:53:35;;;;;;;1999.90;999.90;;;;;;;11.50;100.00;97835.47;5033412;28;20033;-72
2023/05/14 01:56:01;;;;;;;1999.90;999.90;;;;;;;11.45;100.00;97832.84;5033285;28;20112;-72
2023/05/14 01:58:26;;;;;;;1999.90;999.90;;;;;;;11.44;100.00;97831.22;5029409;28;20029;-73
2023/05/14 02:00:51;;;;;;;1999.90;999.90;;;;;;;11.45;100.00;97832.84;5012550;28;20376;-73
2023/05/14 02:03:16;;;;;;;1999.90;999.90;;;;;;;11.42;100.00;97836.19;5018811;28;20037;-73
2023/05/14 02:05:42;;;;;;;1999.90;999.90;;;;;;;11.40;100.00;97838.44;5017632;28;20026;-73
2023/05/14 02:08:07;;;;;;;1999.90;999.90;;;;;;;11.39;100.00;97828.59;5013885;28;20084;-73
2023/05/14 02:10:32;;;;;;;1999.90;999.90;;;;;;;11.40;100.00;97824.75;5013069;28;20483;-71
2023/05/14 02:12:58;;;;;;;1999.90;999.90;;;;;;;11.41;100.00;97831.81;4995400;28;20054;-72
2023/05/14 02:15:23;;;;;;;1999.90;999.90;;;;;;;11.41;100.00;97818.13;5013141;28;20475;-72
2023/05/14 02:17:48;;;;;;;1999.90;999.90;;;;;;;11.46;100.00;97814.50;5013046;28;20030;-72
2023/05/14 02:20:14;;;;;;;1999.90;999.90;;;;;;;11.40;100.00;97804.75;4995455;28;20446;-71
2023/05/14 02:22:44;;;;;;;1999.90;999.90;;;;;;;11.23;100.00;97803.44;5013016;28;20057;-72
2023/05/14 02:25:09;;;;;;;1999.90;999.90;;;;;;;11.27;100.00;97803.63;5013019;28;20021;-71
2023/05/14 02:27:35;;;;;;;1999.90;999.90;;;;;;;11.23;100.00;97800.69;5012690;28;20034;-74
2023/05/14 02:30:00;;;;;;;1999.90;999.90;;;;;;;11.23;100.00;97799.88;4995062;28;20034;-73
2023/05/14 02:32:26;;;;;;;1999.90;999.90;;;;;;;11.17;100.00;97790.94;5012768;28;20038;-74
2023/05/14 02:34:51;;;;;;;1999.90;999.90;;;;;;;11.19;100.00;97785.16;5012592;28;20382;-73
2023/05/14 02:37:17;;;;;;;1999.90;999.90;;;;;;;11.26;100.00;97791.03;5013120;28;20022;-74
2023/05/14 02:39:42;;;;;;;1999.90;999.90;;;;;;;11.24;100.00;97787.81;5020821;28;20139;-74
2023/05/14 02:42:07;;;;;;;1999.90;999.90;;;;;;;11.20;100.00;97781.31;5032290;28;20060;-73
2023/05/14 02:44:33;;;;;;;1999.90;999.90;;;;;;;11.26;100.00;97793.78;5032569;28;20034;-73
2023/05/14 02:46:58;;;;;;;1999.90;999.90;;;;;;;11.20;100.00;97793.06;5032751;28;20025;-73
2023/05/14 02:49:23;;;;;;;1999.90;999.90;;;;;;;11.18;100.00;97787.06;5032602;28;20029;-72
2023/05/14 02:51:49;;;;;;;1999.90;999.90;;;;;;;11.17;100.00;97790.94;5032297;28;20021;-73
2023/05/14 02:54:15;;;;;;;1999.90;999.90;;;;;;;11.17;100.00;97788.22;5032353;28;20573;-73
2023/05/14 02:56:40;;;;;;;1999.90;999.90;;;;;;;11.19;100.00;97777.75;5032291;28;20489;-73
2023/05/14 02:59:06;;;;;;;1999.90;999.90;;;;;;;11.24;100.00;97782.34;5032262;28;20033;-73
2023/05/14 03:01:31;;;;;;;1999.90;999.90;;;;;;;11.24;100.00;97780.38;5032393;28;20079;-73
2023/05/14 03:03:56;;;;;;;1999.90;999.90;;;;;;;11.19;100.00;97779.69;5032244;28;20044;-71
2023/05/14 03:06:22;;;;;;;1999.90;999.90;;;;;;;11.11;100.00;97764.78;5032304;28;20179;-73
2023/05/14 03:08:47;;;;;;;1999.90;999.90;;;;;;;11.17;100.00;97770.97;5032767;28;20029;-73
2023/05/14 03:11:12;;;;;;;1999.90;999.90;;;;;;;11.15;100.00;97768.53;5032028;28;20041;-73
2023/05/14 03:13:38;;;;;;;1999.90;999.90;;;;;;;11.20;100.00;97759.41;5031963;28;20029;-73
2023/05/14 03:16:03;;;;;;;1999.90;999.90;;;;;;;11.14;100.00;97755.16;5031977;28;20449;-73
2023/05/14 03:18:29;;;;;;;1999.90;999.90;;;;;;;11.14;100.00;97755.16;5031913;28;20021;-75
2023/05/14 03:20:55;;;;;;;1999.90;999.90;;;;;;;11.13;100.00;97753.53;5031960;28;20028;-74
2023/05/14 03:23:20;;;;;;;1999.90;999.90;;;;;;;11.15;100.00;97754.84;5031695;28;20037;-73
2023/05/14 03:25:45;;;;;;;1999.90;999.90;;;;;;;11.19;100.00;97753.13;5031840;28;20380;-73
2023/05/14 03:28:11;;;;;;;1999.90;999.90;;;;;;;11.21;100.00;97750.09;5031963;28;20037;-73
2023/05/14 03:30:36;;;;;;;1999.90;999.90;;;;;;;11.20;100.00;97754.75;5031603;28;20029;-74
2023/05/14 03:33:02;;;;;;;1999.90;999.90;;;;;;;11.16;100.00;97747.44;5031639;28;20053;-74
2023/05/14 03:35:27;;;;;;;1999.90;999.90;;;;;;;11.17;100.00;97738.13;5031734;28;20032;-74
2023/05/14 03:37:52;;;;;;;1999.90;999.90;;;;;;;11.16;100.00;97751.00;5032049;28;20112;-73
2023/05/14 03:40:18;;;;;;;1999.90;999.90;;;;;;;11.15;100.00;97751.31;5031384;28;20152;-73
2023/05/14 03:42:43;;;;;;;1999.90;999.90;;;;;;;11.16;100.00;97747.44;5031562;28;20031;-73
2023/05/14 03:45:09;;;;;;;1999.90;999.90;;;;;;;11.20;100.00;97762.16;5031554;28;20059;-73
2023/05/14 03:47:34;;;;;;;1999.90;999.90;;;;;;;11.20;100.00;97759.41;5031686;28;20024;-73
2023/05/14 03:49:59;;;;;;;1999.90;999.90;;;;;;;11.10;100.00;97759.59;5031648;28;20100;-73
2023/05/14 03:52:25;;;;;;;1999.90;999.90;;;;;;;11.13;100.00;97759.81;5031336;28;20032;-73
2023/05/14 03:54:50;;;;;;;1999.90;999.90;;;;;;;11.15;100.00;97765.00;5030774;28;20067;-73
2023/05/14 03:57:15;;;;;;;1999.90;999.90;;;;;;;11.13;100.00;97759.00;5031438;28;20367;-73
2023/05/14 03:59:40;;;;;;;1999.90;999.90;;;;;;;11.17;100.00;97770.97;5031214;28;20025;-73
2023/05/14 04:02:06;;;;;;;1999.90;999.90;;;;;;;11.14;100.00;97763.38;5030918;28;20061;-73
2023/05/14 04:04:31;;;;;;;1999.90;999.90;;;;;;;10.97;100.00;97750.28;5031045;28;20147;-73
2023/05/14 04:06:56;;;;;;;1999.90;999.90;;;;;;;11.10;100.00;97765.06;5031317;28;20026;-73
2023/05/14 04:09:22;;;;;;;1999.90;999.90;;;;;;;11.07;100.00;97765.69;5031422;28;20026;-73
2023/05/14 04:11:47;;;;;;;1999.90;999.90;;;;;;;11.12;100.00;97765.59;5033662;28;20034;-77
2023/05/14 04:14:13;;;;;;;1999.90;999.90;;;;;;;11.09;100.00;97766.19;5032901;28;20100;-73
2023/05/14 04:16:38;;;;;;;1999.90;999.90;;;;;;;11.04;100.00;97758.09;5031020;28;20025;-73
2023/05/14 04:19:04;;;;;;;1999.90;999.90;;;;;;;11.09;100.00;97760.72;5030929;28;20037;-73
2023/05/14 04:21:30;;;;;;;1999.90;999.90;;;;;;;11.00;100.00;97748.84;5030714;28;20433;-73
2023/05/14 04:23:55;;;;;;;1999.90;999.90;;;;;;;11.05;100.00;97757.78;5030718;28;20040;-73
2023/05/14 04:26:20;;;;;;;1999.90;999.90;;;;;;;11.08;100.00;97762.66;5030670;28;20479;-73
2023/05/14 04:28:46;;;;;;;1999.90;999.90;;;;;;;11.11;100.00;97755.75;5030840;28;20029;-73
2023/05/14 04:31:11;;;;;;;1999.90;999.90;;;;;;;11.12;100.00;97763.66;5030633;28;20021;-73
2023/05/14 04:33:37;;;;;;;1999.90;999.90;;;;;;;11.06;100.00;97758.56;5030628;28;20033;-73
2023/05/14 04:36:03;;;;;;;1999.90;999.90;;;;;;;11.03;100.00;97761.91;5030609;28;20042;-72
2023/05/14 04:38:30;;;;;;;1999.90;999.90;;;;;;;11.06;100.00;97762.13;5031089;28;20363;-73
2023/05/14 04:40:55;;;;;;;1999.90;999.90;;;;;;;11.02;100.00;97758.41;5030234;28;20088;-73
2023/05/14 04:43:21;;;;;;;1999.90;999.90;;;;;;;11.05;100.00;97756.97;5023975;28;20494;-73
2023/05/14 04:45:46;;;;;;;1999.90;999.90;;;;;;;11.01;100.00;97751.28;5017282;28;20438;-73
2023/05/14 04:48:11;;;;;;;1999.90;999.90;;;;;;;11.04;100.00;97755.34;5010501;28;20546;-73
2023/05/14 04:50:37;;;;;;;1999.90;999.90;;;;;;;10.98;100.00;97740.13;5029502;28;20513;-73
2023/05/14 04:53:02;;;;;;;1999.90;999.90;;;;;;;11.04;100.00;97747.13;5029920;28;20030;-74
2023/05/14 04:55:28;;;;;;;1999.90;999.90;;;;;;;10.96;100.00;97742.38;5029966;28;20065;-73
2023/05/14 04:57:53;;;;;;;1999.90;999.90;;;;;;;10.87;100.00;97730.50;5030128;28;20025;-73
2023/05/14 05:00:20;;;;;;;1999.90;999.90;;;;;;;10.97;100.00;97730.28;5030044;28;20467;-73
2023/05/14 05:02:46;;;;;;;1999.90;999.90;;;;;;;11.02;100.00;97732.94;5010717;28;20022;-73
2023/05/14 05:05:11;;;;;;;1999.90;999.90;;;;;;;11.14;100.00;97717.66;5010067;28;20391;-73
2023/05/14 05:07:36;;;;;;;1999.90;999.90;;;;;;;11.15;100.00;97713.00;5013430;28;20029;-73
2023/05/14 05:10:02;;;;;;;1999.90;999.90;;;;;;;11.24;100.00;97708.41;5014669;28;20029;-73
2023/05/14 05:12:29;;;;;;;1999.90;999.90;;;;;;;11.28;100.00;97718.44;5014270;28;20041;-73
2023/05/14 05:14:56;;;;;;;1999.90;999.90;;;;;;;11.29;100.00;97708.28;5014196;28;20030;-74
2023/05/14 05:17:21;;;;;;;1999.90;999.90;;;;;;;11.36;100.00;97711.44;5014883;28;20026;-74
2023/05/14 05:19:47;;;;;;;1999.90;999.90;;;;;;;11.37;100.00;97721.25;5016335;28;20022;-72
2023/05/14 05:22:12;;;;;;;1999.90;999.90;;;;;;;11.31;100.00;97703.31;5015170;28;20030;-73
2023/05/14 05:24:37;;;;;;;1999.90;999.90;;;;;;;11.36;100.00;97700.50;5014226;28;20053;-73
2023/05/14 05:27:04;;;;;;;1999.90;999.90;;;;;;;11.37;100.00;97701.31;5014099;28;20084;-73
2023/05/14 05:29:29;;;;;;;1999.90;999.90;;;;;;;11.27;100.00;97694.94;5014059;28;20033;-73
2023/05/14 05:31:55;;;;;;;1999.90;999.90;;;;;;;11.36;100.00;97692.28;5014107;28;20018;-73
2023/05/14 05:34:20;;;;;;;1999.90;999.90;;;;;;;11.28;100.00;97684.75;5014216;28;20461;-74
2023/05/14 05:36:45;;;;;;;1999.90;999.90;;;;;;;11.26;100.00;97681.53;5013895;28;20022;-73
2023/05/14 05:39:11;;;;;;;1999.90;999.90;;;;;;;11.31;100.00;97678.66;5011957;28;20061;-73
2023/05/14 05:41:38;;;;;;;1999.90;999.90;;;;;;;11.37;100.00;97693.88;5013813;28;20021;-72
2023/05/14 05:44:03;;;;;;;1999.90;999.90;;;;;;;11.48;100.00;97689.81;5013680;28;20030;-73
2023/05/14 05:46:29;;;;;;;1999.90;999.90;;;;;;;11.39;100.00;97677.97;5013780;28;20505;-73
2023/05/14 05:48:54;;;;;;;1999.90;999.90;;;;;;;11.52;100.00;97688.09;5013573;28;20374;-73
2023/05/14 05:51:19;;;;;;;1999.90;999.90;;;;;;;11.56;100.00;97691.03;5013501;28;20030;-73
2023/05/14 05:53:45;;;;;;;1999.90;999.90;;;;;;;11.58;100.00;97677.81;5013106;28;20034;-73
2023/05/14 05:56:10;;;;;;;1999.90;999.90;;;;;;;11.64;100.00;97682.06;5013276;28;20061;-73
2023/05/14 05:58:35;;;;;;;1999.90;999.90;;;;;;;11.66;100.00;97677.88;5013164;28;20108;-73
2023/05/14 06:01:01;;;;;;;1999.90;999.90;;;;;;;11.74;100.00;97679.13;5013371;28;20040;-76
2023/05/14 06:03:26;;;;;;;1999.90;999.90;;;;;;;11.67;100.00;97678.69;5013221;28;20038;-76
2023/05/14 06:05:52;;;;;;;1999.90;999.90;;;;;;;11.66;100.00;97680.63;5013485;28;20103;-76
2023/05/14 06:08:17;;;;;;;1999.90;999.90;;;;;;;11.62;100.00;97682.34;5013218;28;20030;-76
2023/05/14 06:10:43;;;;;;;1999.90;999.90;;;;;;;11.69;100.00;97682.75;5013355;28;20037;-76
2023/05/14 06:13:08;;;;;;;1999.90;999.90;;;;;;;11.68;100.00;97681.13;5013209;28;20061;-77
2023/05/14 06:15:34;;;;;;;1999.90;999.90;;;;;;;11.64;100.00;97682.88;5011953;28;20485;-77
2023/05/14 06:17:59;;;;;;;1999.90;999.90;;;;;;;11.53;100.00;97688.88;5012779;28;20493;-78
2023/05/14 06:20:24;;;;;;;1999.90;999.90;;;;;;;11.55;100.00;97679.25;5032667;28;20064;-76
2023/05/14 06:22:50;;;;;;;1999.90;999.90;;;;;;;11.45;100.00;97681.41;5034805;28;20086;-78
2023/05/14 06:25:15;;;;;;;1999.90;999.90;;;;;;;11.45;100.00;97674.00;5032972;28;20033;-76
2023/05/14 06:27:41;;;;;;;1999.90;999.90;;;;;;;11.40;100.00;97679.59;5032720;28;20474;-76
2023/05/14 06:30:07;;;;;;;1999.90;999.90;;;;;;;11.41;100.00;97678.47;5032643;28;20367;-76
2023/05/14 06:32:32;;;;;;;1999.90;999.90;;;;;;;11.41;100.00;97678.47;5032868;28;20036;-73
2023/05/14 06:34:57;;;;;;;1999.90;999.90;;;;;;;11.38;100.00;97679.06;5032484;28;20516;-72
2023/05/14 06:37:23;;;;;;;1999.90;999.90;;;;;;;11.33;100.00;97676.47;5032309;28;20140;-73
2023/05/14 06:39:49;;;;;;;1999.90;999.90;;;;;;;11.35;100.00;97667.91;5032357;28;20052;-73
2023/05/14 06:42:18;;;;;;;1999.90;999.90;;;;;;;11.35;100.00;97662.44;5032351;28;20398;-72
2023/05/14 06:44:44;;;;;;;1999.90;999.90;;;;;;;11.38;100.00;97662.63;5032109;28;20059;-73
2023/05/14 06:47:09;;;;;;;1999.90;999.90;;;;;;;11.34;100.00;97650.69;5032106;28;20032;-73
2023/05/14 06:49:35;;;;;;;1999.90;999.90;;;;;;;11.36;100.00;97644.91;5031992;28;20525;-72
2023/05/14 06:52:01;;;;;;;1999.90;999.90;;;;;;;11.46;100.00;97653.72;5031938;28;20060;-73
2023/05/14 06:54:28;;;;;;;1999.90;999.90;;;;;;;11.30;100.00;97638.75;5032024;28;20110;-73
2023/05/14 06:56:54;;;;;;;1999.90;999.90;;;;;;;11.47;100.00;97659.97;5031836;28;20037;-73
2023/05/14 06:59:19;;;;;;;1999.90;999.90;;;;;;;11.49;100.00;97653.09;5032018;28;20079;-72
2023/05/14 07:01:44;;;;;;;1999.90;999.90;;;;;;;11.58;100.00;97655.91;5031986;28;20026;-73
2023/05/14 07:04:10;;;;;;;1999.90;999.90;;;;;;;11.66;100.00;97647.75;5031728;28;20033;-72
2023/05/14 07:06:35;;;;;;;1999.90;999.90;;;;;;;11.61;100.00;97638.84;5031774;28;20049;-72
2023/05/14 07:09:01;;;;;;;1999.90;999.90;;;;;;;11.71;100.00;97636.72;5031978;28;20153;-72
2023/05/14 07:11:27;;;;;;;1999.90;999.90;;;;;;;11.75;100.00;97632.22;5032052;28;20022;-72
2023/05/14 07:13:52;;;;;;;1999.90;999.90;;;;;;;11.62;100.00;97627.56;5031588;28;20049;-74
2023/05/14 07:16:18;;;;;;;1999.90;999.90;;;;;;;11.70;100.00;97620.56;5031411;28;20033;-73
2023/05/14 07:18:44;;;;;;;1999.90;999.90;;;;;;;11.89;100.00;97628.63;5031393;28;20470;-72
2023/05/14 07:21:09;;;;;;;1999.90;999.90;;;;;;;11.96;100.00;97629.00;5031466;28;20025;-73
2023/05/14 07:23:36;;;;;;;1999.90;999.90;;;;;;;11.90;100.00;97624.75;5013388;28;20474;-72
2023/05/14 07:26:01;;;;;;;1999.90;999.90;;;;;;;11.81;100.00;97617.28;5031476;28;20216;-72
2023/05/14 07:28:27;;;;;;;1999.90;999.90;;;;;;;11.84;100.00;97609.56;5030751;28;20485;-73
2023/05/14 07:30:53;;;;;;;1999.90;999.90;;;;;;;11.98;100.00;97615.78;5030936;28;20382;-72
2023/05/14 07:33:18;;;;;;;1999.90;999.90;;;;;;;11.91;100.00;97613.47;5031479;28;20025;-72
2023/05/14 07:35:43;;;;;;;1999.90;999.90;;;;;;;12.01;100.00;97609.66;5031118;28;20052;-72
2023/05/14 07:38:09;;;;;;;1999.90;999.90;;;;;;;12.17;100.00;97606.22;5021209;28;20487;-72
2023/05/14 07:40:34;;;;;;;1999.90;999.90;;;;;;;12.42;100.00;97612.97;5011827;28;20053;-72
2023/05/14 07:42:59;;;;;;;1999.90;999.90;;;;;;;12.57;100.00;97609.81;5031295;28;20109;-72
2023/05/14 07:45:24;;;;;;;1999.90;999.90;;;;;;;12.67;100.00;97612.28;5025995;28;20184;-72
2023/05/14 07:47:50;;;;;;;1999.90;999.90;;;;;;;12.81;100.00;97604.72;5029338;28;20477;-72
2023/05/14 07:50:17;;;;;;;1999.90;999.90;;;;;;;12.92;100.00;97607.19;5030390;28;20077;-73
2023/05/14 07:52:43;;;;;;;1999.90;999.90;;;;;;;12.93;100.00;97606.88;5029797;28;20544;-72
2023/05/14 07:55:09;;;;;;;1999.90;999.90;;;;;;;12.83;100.00;97602.50;5030653;28;20022;-72
2023/05/14 07:57:36;;;;;;;1999.90;999.90;;;;;;;12.75;100.00;97592.28;5012891;28;20136;-72
2023/05/14 08:00:02;;;;;;;1999.90;999.90;;;;;;;12.69;100.00;97590.00;5030850;28;20049;-73
2023/05/14 08:02:28;;;;;;;1999.90;999.90;;;;;;;12.72;100.00;97586.59;5030142;28;20065;-73
2023/05/14 08:04:53;;;;;;;1999.90;999.90;;;;;;;12.86;100.00;97595.53;5030453;28;20493;-73
2023/05/14 08:07:18;;;;;;;1999.90;999.90;;;;;;;12.95;100.00;97588.13;5030260;28;20108;-73
2023/05/14 08:09:44;;;;;;;1999.90;999.90;;;;;;;12.92;100.00;97579.72;5030704;28;20089;-75
2023/05/14 08:12:09;;;;;;;1999.90;999.90;;;;;;;13.08;100.00;97578.16;5031732;28;20053;-75
2023/05/14 08:14:34;;;;;;;1999.90;999.90;;;;;;;13.03;100.00;97581.84;5012649;28;20087;-81
2023/05/14 08:17:00;;;;;;;1999.90;999.90;;;;;;;13.02;100.00;97579.44;5030619;28;20061;-76
2023/05/14 08:19:26;;;;;;;1999.90;999.90;;;;;;;13.00;100.00;97584.44;5030297;28;20087;-78
2023/05/14 08:21:52;;;;;;;1999.90;999.90;;;;;;;13.06;100.00;97574.94;5030744;28;20509;-75
2023/05/14 08:24:17;;;;;;;1999.90;999.90;;;;;;;13.09;100.00;97563.34;5029735;28;20490;-76
2023/05/14 08:26:43;;;;;;;1999.90;999.90;;;;;;;13.20;100.00;97572.88;5033504;28;20108;-76
2023/05/14 08:29:09;;;;;;;1999.90;999.90;;;;;;;13.23;100.00;97566.72;5036173;28;20833;-71
2023/05/14 08:31:35;;;;;;;1999.90;999.90;;;;;;;13.29;100.00;97557.19;5005222;28;20088;-75
2023/05/14 08:34:00;;;;;;;1999.90;999.90;;;;;;;13.25;100.00;97561.75;5005274;28;20013;-74
2023/05/14 08:36:26;;;;;;;1999.90;999.90;;;;;;;13.50;100.00;97560.13;5024169;28;20036;-76
2023/05/14 08:38:51;;;;;;;1999.90;999.90;;;;;;;13.73;100.00;97545.06;5007100;28;20022;-75
2023/05/14 08:41:17;;;;;;;1999.90;999.90;;;;;;;14.00;100.00;97557.63;5040084;28;20060;-75
2023/05/14 08:44:09;;;;;;;1999.90;999.90;;;;;;;14.22;100.00;97558.19;5037691;28;20037;-76
2023/05/14 08:46:37;;;;;;;1999.90;999.90;;;;;;;14.44;100.00;97562.69;5021686;28;20031;-76
2023/05/14 08:49:15;;;;;;;1999.90;999.90;;;;;;;14.63;100.00;97552.06;5028438;28;20050;-77
2023/05/14 08:51:42;;;;;;;1999.90;999.90;;;;;;;14.79;100.00;97538.53;5029921;28;20032;-75
2023/05/14 08:54:14;;;;;;;1999.90;999.90;;;;;;;14.80;100.00;97527.22;5011961;28;20030;-76
2023/05/14 08:56:40;;;;;;;1999.90;999.90;;;;;;;15.09;100.00;97539.34;5011990;28;20033;-76
2023/05/14 08:59:06;;;;;;;1999.90;999.90;;;;;;;15.02;100.00;97537.13;5029468;28;20428;-76
2023/05/14 09:01:31;;;;;;;1999.90;999.90;;;;;;;15.22;100.00;97528.06;5029871;28;20044;-76
2023/05/14 09:04:00;;;;;;;1999.90;999.90;;;;;;;15.39;100.00;97524.34;5029589;28;20083;-73
2023/05/14 09:06:26;;;;;;;1999.90;999.90;;;;;;;15.62;100.00;97531.16;5011708;28;20112;-75
2023/05/14 09:08:53;;;;;;;1999.90;999.90;;;;;;;15.73;100.00;97531.53;5029556;28;20091;-75
2023/05/14 09:11:18;;;;;;;1999.90;999.90;;;;;;;15.75;100.00;97521.81;5038970;28;20029;-75
2023/05/14 09:13:44;;;;;;;1999.90;999.90;;;;;;;15.69;100.00;97519.59;5049458;28;20029;-76
2023/05/14 09:16:09;;;;;;;1999.90;999.90;;;;;;;15.77;100.00;97514.00;5049109;28;20064;-76
2023/05/14 09:18:35;;;;;;;1999.90;999.90;;;;;;;15.95;100.00;97522.88;5039596;28;20063;-74
2023/05/14 09:21:01;;;;;;;1999.90;999.90;;;;;;;15.83;100.00;97529.16;5048422;28;20048;-81
2023/05/14 09:23:31;;;;;;;1999.90;999.90;;;;;;;15.68;100.00;97526.25;5048605;28;20033;-82
2023/05/14 09:25:56;;;;;;;1999.90;999.90;;;;;;;15.51;100.00;97532.72;5049521;28;20029;-81
2023/05/14 09:28:21;;;;;;;1999.90;999.90;;;;;;;15.08;100.00;97513.75;5031934;28;20436;-84
2023/05/14 09:30:50;;;;;;;1999.90;999.90;;;;;;;15.00;100.00;97504.38;5051193;28;20676;-81
2023/05/14 09:33:26;;;;;;;1999.90;999.90;;;;;;;14.90;100.00;97523.28;5049426;28;20071;-82
2023/05/14 09:35:54;;;;;;;1999.90;999.90;;;;;;;14.86;100.00;97523.13;5050134;28;20478;-81
2023/05/14 09:38:22;;;;;;;1999.90;999.90;;;;;;;14.72;100.00;97514.28;5047432;28;20497;-79
2023/05/14 09:40:47;;;;;;;1999.90;999.90;;;;;;;14.50;100.00;97505.53;5047994;28;20531;-81
2023/05/14 09:43:12;;;;;;;1999.90;999.90;;;;;;;14.20;100.00;97499.97;5050843;28;20124;-80
2023/05/14 09:45:39;;;;;;;1999.90;999.90;;;;;;;14.07;100.00;97505.66;5050359;28;20029;-82
2023/05/14 09:48:05;;;;;;;1999.90;999.90;;;;;;;14.08;100.00;97507.28;5032650;28;20764;-81
2023/05/14 09:50:30;;;;;;;1999.90;999.90;;;;;;;14.11;100.00;97512.13;5049650;28;20029;-79
2023/05/14 09:52:55;;;;;;;1999.90;999.90;;;;;;;13.80;100.00;97506.88;5052465;28;20028;-82
2023/05/14 09:55:22;;;;;;;1999.90;999.90;;;;;;;13.66;100.00;97498.00;5053747;28;20067;-84
2023/05/14 09:57:47;;;;;;;1999.90;999.90;;;;;;;13.49;100.00;97485.13;5052119;28;20033;-81
2023/05/14 10:00:13;;;;;;;1999.90;999.90;;;;;;;13.51;100.00;97484.78;5053620;28;20389;-81
2023/05/14 10:02:41;;;;;;;1999.90;999.90;;;;;;;13.46;100.00;97480.28;5053591;28;20021;-78
2023/05/14 10:05:07;;;;;;;1999.90;999.90;;;;;;;13.47;100.00;97468.13;5035169;28;20033;-81
2023/05/14 10:07:38;;;;;;;1999.90;999.90;;;;;;;13.41;100.00;97461.19;5052893;28;20029;-77
2023/05/14 10:10:07;;;;;;;1999.90;999.90;;;;;;;13.44;100.00;97457.00;5050503;28;20029;-79
2023/05/14 10:12:35;;;;;;;1999.90;999.90;;;;;;;13.47;100.00;97464.59;5045283;28;20029;-80
2023/05/14 10:15:05;;;;;;;1999.90;999.90;;;;;;;13.49;100.00;97457.66;5049559;28;20025;-81
2023/05/14 10:17:33;;;;;;;1999.90;999.90;;;;;;;13.45;100.00;97445.69;5051991;28;20044;-84
2023/05/14 10:20:01;;;;;;;1999.90;999.90;;;;;;;13.37;100.00;97435.53;5053135;28;20044;-81
2023/05/14 10:22:32;;;;;;;1999.90;999.90;;;;;;;13.45;100.00;97437.44;5048478;28;20017;-80
2023/05/14 10:24:58;;;;;;;1999.90;999.90;;;;;;;13.59;100.00;97443.56;5043142;28;20123;-81
2023/05/14 10:27:24;;;;;;;1999.90;999.90;;;;;;;13.70;100.00;97444.81;5032590;28;20100;-79
2023/05/14 10:29:54;;;;;;;1999.90;999.90;;;;;;;13.71;100.00;97431.88;5046676;28;20056;-80
2023/05/14 10:32:24;;;;;;;1999.90;999.90;;;;;;;13.72;100.00;97434.28;5043193;28;20036;-80
2023/05/14 10:34:51;;;;;;;1999.90;999.90;;;;;;;13.89;100.00;97434.25;5052629;28;20448;-82
2023/05/14 10:37:19;;;;;;;1999.90;999.90;;;;;;;13.81;100.00;97431.53;5050923;28;20047;-81
2023/05/14 10:39:45;;;;;;;1999.90;999.90;;;;;;;13.89;100.00;97434.25;5046293;28;20049;-82
2023/05/14 10:42:12;;;;;;;1999.90;999.90;;;;;;;13.82;100.00;97439.44;5031877;28;20386;-77
2023/05/14 10:44:46;;;;;;;1999.90;999.90;;;;;;;13.75;100.00;97441.88;5033181;28;20030;-85